sensor_id;sensor_type;location;lat;lon;timestamp;temperature;humidity
56322;DHT22;42227;6.376;-10.782;2024-02-14T00:00:53;30.10;99.90
56322;DHT22;42227;6.376;-10.782;2024-02-14T00:03:21;30.10;99.90
56322;DHT22;42227;6.376;-10.782;2024-02-14T00:05:50;30.10;99.90
56322;DHT22;42227;6.376;-10.782;2024-02-14T00:08:18;30.00;99.90
56322;DHT22;42227;6.376;-10.782;2024-02-14T00:10:47;30.10;99.90
56322;DHT22;42227;6.376;-10.782;2024-02-14T00:13:15;30.10;99.90
56322;DHT22;42227;6.376;-10.782;2024-02-14T00:15:44;30.00;99.90
56322;DHT22;42227;6.376;-10.782;2024-02-14T00:18:13;29.80;99.90
56322;DHT22;42227;6.376;-10.782;2024-02-14T00:20:42;29.80;99.90
56322;DHT22;42227;6.376;-10.782;2024-02-14T00:23:10;29.80;99.90
56322;DHT22;42227;6.376;-10.782;2024-02-14T00:25:39;29.90;99.90
56322;DHT22;42227;6.376;-10.782;2024-02-14T00:28:07;30.00;99.90
56322;DHT22;42227;6.376;-10.782;2024-02-14T00:30:35;30.10;99.90
56322;DHT22;42227;6.376;-10.782;2024-02-14T00:33:06;30.10;99.90
56322;DHT22;42227;6.376;-10.782;2024-02-14T00:35:51;30.10;99.90
56322;DHT22;42227;6.376;-10.782;2024-02-14T00:38:26;30.10;99.90
56322;DHT22;42227;6.376;-10.782;2024-02-14T00:40:56;30.10;99.90
56322;DHT22;42227;6.376;-10.782;2024-02-14T00:43:24;30.10;99.90
56322;DHT22;42227;6.376;-10.782;2024-02-14T00:45:56;30.10;99.90
56322;DHT22;42227;6.376;-10.782;2024-02-14T00:48:24;30.10;99.90
56322;DHT22;42227;6.376;-10.782;2024-02-14T00:50:56;30.10;99.90
56322;DHT22;42227;6.376;-10.782;2024-02-14T00:53:26;30.10;99.90
56322;DHT22;42227;6.376;-10.782;2024-02-14T00:56:03;30.00;99.90
56322;DHT22;42227;6.376;-10.782;2024-02-14T00:58:33;30.10;99.90
56322;DHT22;42227;6.376;-10.782;2024-02-14T01:01:02;30.10;99.90
56322;DHT22;42227;6.376;-10.782;2024-02-14T01:03:32;30.00;99.90
56322;DHT22;42227;6.376;-10.782;2024-02-14T01:06:02;30.10;99.90
56322;DHT22;42227;6.376;-10.782;2024-02-14T01:08:32;30.10;99.90
56322;DHT22;42227;6.376;-10.782;2024-02-14T01:11:04;30.10;99.90
56322;DHT22;42227;6.376;-10.782;2024-02-14T01:13:34;30.00;99.90
56322;DHT22;42227;6.376;-10.782;2024-02-14T01:16:04;30.10;99.90
56322;DHT22;42227;6.376;-10.782;2024-02-14T01:18:33;30.00;99.90
56322;DHT22;42227;6.376;-10.782;2024-02-14T01:21:07;29.90;99.90
56322;DHT22;42227;6.376;-10.782;2024-02-14T01:23:36;29.80;99.90
56322;DHT22;42227;6.376;-10.782;2024-02-14T01:26:06;29.70;99.90
56322;DHT22;42227;6.376;-10.782;2024-02-14T01:28:36;29.70;99.90
56322;DHT22;42227;6.376;-10.782;2024-02-14T01:31:09;29.90;99.90
56322;DHT22;42227;6.376;-10.782;2024-02-14T01:33:37;29.90;99.90
56322;DHT22;42227;6.376;-10.782;2024-02-14T01:36:06;30.00;99.90
56322;DHT22;42227;6.376;-10.782;2024-02-14T01:38:38;30.00;99.90
56322;DHT22;42227;6.376;-10.782;2024-02-14T01:41:07;30.00;99.90
56322;DHT22;42227;6.376;-10.782;2024-02-14T01:43:37;30.00;99.90
56322;DHT22;42227;6.376;-10.782;2024-02-14T01:46:11;30.00;99.90
56322;DHT22;42227;6.376;-10.782;2024-02-14T01:48:41;30.00;99.90
56322;DHT22;42227;6.376;-10.782;2024-02-14T01:51:13;30.00;99.90
56322;DHT22;42227;6.376;-10.782;2024-02-14T01:53:42;30.10;99.90
56322;DHT22;42227;6.376;-10.782;2024-02-14T01:56:10;30.10;99.90
56322;DHT22;42227;6.376;-10.782;2024-02-14T01:58:41;30.10;99.90
56322;DHT22;42227;6.376;-10.782;2024-02-14T02:01:19;30.00;99.90
56322;DHT22;42227;6.376;-10.782;2024-02-14T02:03:50;30.10;99.90
56322;DHT22;42227;6.376;-10.782;2024-02-14T02:06:20;30.00;99.90
56322;DHT22;42227;6.376;-10.782;2024-02-14T02:08:48;30.20;99.90
56322;DHT22;42227;6.376;-10.782;2024-02-14T02:11:22;30.10;99.90
56322;DHT22;42227;6.376;-10.782;2024-02-14T02:13:50;30.00;99.90
56322;DHT22;42227;6.376;-10.782;2024-02-14T02:16:26;29.80;99.90
56322;DHT22;42227;6.376;-10.782;2024-02-14T02:18:56;29.60;1.00
56322;DHT22;42227;6.376;-10.782;2024-02-14T02:21:27;29.50;1.00
56322;DHT22;42227;6.376;-10.782;2024-02-14T02:23:57;29.50;1.00
56322;DHT22;42227;6.376;-10.782;2024-02-14T02:26:25;29.50;1.00
56322;DHT22;42227;6.376;-10.782;2024-02-14T02:28:54;29.50;1.00
56322;DHT22;42227;6.376;-10.782;2024-02-14T02:31:25;29.50;1.00
56322;DHT22;42227;6.376;-10.782;2024-02-14T02:33:54;29.50;1.00
56322;DHT22;42227;6.376;-10.782;2024-02-14T02:36:24;29.50;1.00
56322;DHT22;42227;6.376;-10.782;2024-02-14T02:38:53;29.40;1.00
56322;DHT22;42227;6.376;-10.782;2024-02-14T02:41:21;29.50;1.00
56322;DHT22;42227;6.376;-10.782;2024-02-14T02:43:51;29.40;1.00
56322;DHT22;42227;6.376;-10.782;2024-02-14T02:46:20;29.40;1.00
56322;DHT22;42227;6.376;-10.782;2024-02-14T02:48:49;29.20;1.00
56322;DHT22;42227;6.376;-10.782;2024-02-14T02:51:18;29.20;1.00
56322;DHT22;42227;6.376;-10.782;2024-02-14T02:53:47;29.10;1.00
56322;DHT22;42227;6.376;-10.782;2024-02-14T02:56:15;29.20;1.00
56322;DHT22;42227;6.376;-10.782;2024-02-14T02:58:45;29.20;1.00
56322;DHT22;42227;6.376;-10.782;2024-02-14T03:01:13;29.20;1.00
56322;DHT22;42227;6.376;-10.782;2024-02-14T03:03:42;29.20;1.00
56322;DHT22;42227;6.376;-10.782;2024-02-14T03:06:10;29.20;1.00
56322;DHT22;42227;6.376;-10.782;2024-02-14T03:08:39;29.20;1.00
56322;DHT22;42227;6.376;-10.782;2024-02-14T03:11:07;29.20;1.00
56322;DHT22;42227;6.376;-10.782;2024-02-14T03:13:36;29.20;1.00
56322;DHT22;42227;6.376;-10.782;2024-02-14T03:16:05;29.20;1.00
56322;DHT22;42227;6.376;-10.782;2024-02-14T03:18:33;29.10;1.00
56322;DHT22;42227;6.376;-10.782;2024-02-14T03:21:02;29.10;1.00
56322;DHT22;42227;6.376;-10.782;2024-02-14T03:23:31;29.10;1.00
56322;DHT22;42227;6.376;-10.782;2024-02-14T03:26:00;29.10;1.00
56322;DHT22;42227;6.376;-10.782;2024-02-14T03:28:30;29.10;1.00
56322;DHT22;42227;6.376;-10.782;2024-02-14T03:30:59;29.10;1.00
56322;DHT22;42227;6.376;-10.782;2024-02-14T03:33:28;29.10;1.00
56322;DHT22;42227;6.376;-10.782;2024-02-14T03:35:57;29.10;1.00
56322;DHT22;42227;6.376;-10.782;2024-02-14T03:38:29;29.10;1.00
56322;DHT22;42227;6.376;-10.782;2024-02-14T03:40:58;29.10;1.00
56322;DHT22;42227;6.376;-10.782;2024-02-14T03:43:26;29.00;1.00
56322;DHT22;42227;6.376;-10.782;2024-02-14T03:45:56;28.90;1.00
56322;DHT22;42227;6.376;-10.782;2024-02-14T03:48:26;28.80;1.00
56322;DHT22;42227;6.376;-10.782;2024-02-14T03:50:55;28.80;1.00
56322;DHT22;42227;6.376;-10.782;2024-02-14T03:53:24;28.90;1.00
56322;DHT22;42227;6.376;-10.782;2024-02-14T03:55:52;28.90;1.00
56322;DHT22;42227;6.376;-10.782;2024-02-14T03:58:20;28.90;1.00
56322;DHT22;42227;6.376;-10.782;2024-02-14T04:00:52;28.90;1.00
56322;DHT22;42227;6.376;-10.782;2024-02-14T04:03:20;28.90;1.00
56322;DHT22;42227;6.376;-10.782;2024-02-14T04:05:49;28.90;1.00
56322;DHT22;42227;6.376;-10.782;2024-02-14T04:08:17;28.80;1.00
56322;DHT22;42227;6.376;-10.782;2024-02-14T04:10:46;28.80;1.00
56322;DHT22;42227;6.376;-10.782;2024-02-14T04:13:15;28.80;1.00
56322;DHT22;42227;6.376;-10.782;2024-02-14T04:15:43;28.80;1.00
56322;DHT22;42227;6.376;-10.782;2024-02-14T04:18:11;28.80;1.00
56322;DHT22;42227;6.376;-10.782;2024-02-14T04:20:40;28.70;1.00
56322;DHT22;42227;6.376;-10.782;2024-02-14T04:23:09;28.60;1.00
56322;DHT22;42227;6.376;-10.782;2024-02-14T04:25:37;28.60;1.00
56322;DHT22;42227;6.376;-10.782;2024-02-14T04:28:07;28.60;1.00
56322;DHT22;42227;6.376;-10.782;2024-02-14T04:30:35;28.70;1.00
56322;DHT22;42227;6.376;-10.782;2024-02-14T04:33:04;28.80;1.00
56322;DHT22;42227;6.376;-10.782;2024-02-14T04:35:35;28.70;1.00
56322;DHT22;42227;6.376;-10.782;2024-02-14T04:38:05;28.70;1.00
56322;DHT22;42227;6.376;-10.782;2024-02-14T04:40:34;28.70;1.00
56322;DHT22;42227;6.376;-10.782;2024-02-14T04:43:02;28.70;1.00
56322;DHT22;42227;6.376;-10.782;2024-02-14T04:45:31;28.80;1.00
56322;DHT22;42227;6.376;-10.782;2024-02-14T04:47:59;28.80;1.00
56322;DHT22;42227;6.376;-10.782;2024-02-14T04:50:27;28.80;1.00
56322;DHT22;42227;6.376;-10.782;2024-02-14T04:52:56;28.80;1.00
56322;DHT22;42227;6.376;-10.782;2024-02-14T04:55:24;28.80;1.00
56322;DHT22;42227;6.376;-10.782;2024-02-14T04:57:53;28.70;1.00
56322;DHT22;42227;6.376;-10.782;2024-02-14T05:00:21;28.50;1.00
56322;DHT22;42227;6.376;-10.782;2024-02-14T05:02:50;28.40;1.00
56322;DHT22;42227;6.376;-10.782;2024-02-14T05:05:18;28.40;1.00
56322;DHT22;42227;6.376;-10.782;2024-02-14T05:07:47;28.30;1.00
56322;DHT22;42227;6.376;-10.782;2024-02-14T05:10:16;28.40;1.00
56322;DHT22;42227;6.376;-10.782;2024-02-14T05:12:44;28.40;1.00
56322;DHT22;42227;6.376;-10.782;2024-02-14T05:15:13;28.50;1.00
56322;DHT22;42227;6.376;-10.782;2024-02-14T05:17:44;28.50;1.00
56322;DHT22;42227;6.376;-10.782;2024-02-14T05:20:13;28.50;1.00
56322;DHT22;42227;6.376;-10.782;2024-02-14T05:22:42;28.40;1.00
56322;DHT22;42227;6.376;-10.782;2024-02-14T05:25:10;28.40;1.00
56322;DHT22;42227;6.376;-10.782;2024-02-14T05:27:39;28.30;1.00
56322;DHT22;42227;6.376;-10.782;2024-02-14T05:30:08;28.20;1.00
56322;DHT22;42227;6.376;-10.782;2024-02-14T05:32:36;28.30;1.00
56322;DHT22;42227;6.376;-10.782;2024-02-14T05:35:05;28.30;1.00
56322;DHT22;42227;6.376;-10.782;2024-02-14T05:37:34;28.30;1.00
56322;DHT22;42227;6.376;-10.782;2024-02-14T05:40:06;28.40;1.00
56322;DHT22;42227;6.376;-10.782;2024-02-14T05:42:34;28.50;1.00
56322;DHT22;42227;6.376;-10.782;2024-02-14T05:45:03;28.50;1.00
56322;DHT22;42227;6.376;-10.782;2024-02-14T05:47:32;28.40;1.00
56322;DHT22;42227;6.376;-10.782;2024-02-14T05:50:01;28.40;1.00
56322;DHT22;42227;6.376;-10.782;2024-02-14T05:52:29;28.30;1.00
56322;DHT22;42227;6.376;-10.782;2024-02-14T05:54:58;28.20;1.00
56322;DHT22;42227;6.376;-10.782;2024-02-14T05:57:26;28.20;1.00
56322;DHT22;42227;6.376;-10.782;2024-02-14T05:59:55;28.20;1.00
56322;DHT22;42227;6.376;-10.782;2024-02-14T06:02:24;28.20;1.00
56322;DHT22;42227;6.376;-10.782;2024-02-14T06:04:53;28.30;1.00
56322;DHT22;42227;6.376;-10.782;2024-02-14T06:07:21;28.30;1.00
56322;DHT22;42227;6.376;-10.782;2024-02-14T06:09:51;28.40;1.00
56322;DHT22;42227;6.376;-10.782;2024-02-14T06:12:19;28.40;1.00
56322;DHT22;42227;6.376;-10.782;2024-02-14T06:14:51;28.30;1.00
56322;DHT22;42227;6.376;-10.782;2024-02-14T06:17:19;28.40;1.00
56322;DHT22;42227;6.376;-10.782;2024-02-14T06:19:47;28.40;1.00
56322;DHT22;42227;6.376;-10.782;2024-02-14T06:22:16;28.30;1.00
56322;DHT22;42227;6.376;-10.782;2024-02-14T06:24:44;28.20;1.00
56322;DHT22;42227;6.376;-10.782;2024-02-14T06:27:13;28.10;1.00
56322;DHT22;42227;6.376;-10.782;2024-02-14T06:29:45;28.10;1.00
56322;DHT22;42227;6.376;-10.782;2024-02-14T06:32:13;28.10;1.00
56322;DHT22;42227;6.376;-10.782;2024-02-14T06:34:42;28.20;1.00
56322;DHT22;42227;6.376;-10.782;2024-02-14T06:37:11;28.20;1.00
56322;DHT22;42227;6.376;-10.782;2024-02-14T06:39:39;28.20;1.00
56322;DHT22;42227;6.376;-10.782;2024-02-14T06:42:07;28.20;1.00
56322;DHT22;42227;6.376;-10.782;2024-02-14T06:44:36;28.20;1.00
56322;DHT22;42227;6.376;-10.782;2024-02-14T06:47:05;28.20;1.00
56322;DHT22;42227;6.376;-10.782;2024-02-14T06:49:33;28.20;1.00
56322;DHT22;42227;6.376;-10.782;2024-02-14T06:52:02;28.00;1.00
56322;DHT22;42227;6.376;-10.782;2024-02-14T06:54:30;28.00;1.00
56322;DHT22;42227;6.376;-10.782;2024-02-14T06:56:58;27.90;1.00
56322;DHT22;42227;6.376;-10.782;2024-02-14T06:59:27;28.00;1.00
56322;DHT22;42227;6.376;-10.782;2024-02-14T07:01:56;28.00;1.00
56322;DHT22;42227;6.376;-10.782;2024-02-14T07:04:40;28.10;1.00
56322;DHT22;42227;6.376;-10.782;2024-02-14T07:07:09;28.10;1.00
56322;DHT22;42227;6.376;-10.782;2024-02-14T07:09:37;28.10;1.00
56322;DHT22;42227;6.376;-10.782;2024-02-14T07:12:05;28.10;1.00
56322;DHT22;42227;6.376;-10.782;2024-02-14T07:14:34;28.20;1.00
56322;DHT22;42227;6.376;-10.782;2024-02-14T07:17:02;28.20;1.00
56322;DHT22;42227;6.376;-10.782;2024-02-14T07:19:31;28.10;1.00
56322;DHT22;42227;6.376;-10.782;2024-02-14T07:21:59;28.10;1.00
56322;DHT22;42227;6.376;-10.782;2024-02-14T07:24:28;28.20;1.00
56322;DHT22;42227;6.376;-10.782;2024-02-14T07:26:56;28.20;1.00
56322;DHT22;42227;6.376;-10.782;2024-02-14T07:29:25;28.10;1.00
56322;DHT22;42227;6.376;-10.782;2024-02-14T07:31:53;28.10;1.00
56322;DHT22;42227;6.376;-10.782;2024-02-14T07:34:21;28.10;1.00
56322;DHT22;42227;6.376;-10.782;2024-02-14T07:36:50;28.20;1.00
56322;DHT22;42227;6.376;-10.782;2024-02-14T07:39:18;28.20;1.00
56322;DHT22;42227;6.376;-10.782;2024-02-14T07:41:47;28.20;1.00
56322;DHT22;42227;6.376;-10.782;2024-02-14T07:44:15;28.30;1.00
56322;DHT22;42227;6.376;-10.782;2024-02-14T08:06:34;28.60;99.90
56322;DHT22;42227;6.376;-10.782;2024-02-14T08:09:02;28.80;99.90
56322;DHT22;42227;6.376;-10.782;2024-02-14T08:11:31;29.10;99.90
56322;DHT22;42227;6.376;-10.782;2024-02-14T08:13:59;29.60;99.90
56322;DHT22;42227;6.376;-10.782;2024-02-14T08:16:27;30.10;99.90
56322;DHT22;42227;6.376;-10.782;2024-02-14T08:18:56;30.40;99.90
56322;DHT22;42227;6.376;-10.782;2024-02-14T08:21:28;30.80;99.90
56322;DHT22;42227;6.376;-10.782;2024-02-14T08:23:59;31.10;99.90
56322;DHT22;42227;6.376;-10.782;2024-02-14T08:26:28;31.40;99.90
56322;DHT22;42227;6.376;-10.782;2024-02-14T08:28:57;31.60;99.90
56322;DHT22;42227;6.376;-10.782;2024-02-14T08:31:26;31.80;92.90
56322;DHT22;42227;6.376;-10.782;2024-02-14T08:33:55;32.00;83.70
56322;DHT22;42227;6.376;-10.782;2024-02-14T08:36:24;32.10;74.20
56322;DHT22;42227;6.376;-10.782;2024-02-14T08:39:16;32.10;50.20
56322;DHT22;42227;6.376;-10.782;2024-02-14T08:41:44;31.90;66.10
56322;DHT22;42227;6.376;-10.782;2024-02-14T08:44:13;31.50;68.60
56322;DHT22;42227;6.376;-10.782;2024-02-14T08:46:42;31.20;82.60
56322;DHT22;42227;6.376;-10.782;2024-02-14T08:49:10;30.90;98.30
56322;DHT22;42227;6.376;-10.782;2024-02-14T08:51:39;30.80;99.90
56322;DHT22;42227;6.376;-10.782;2024-02-14T08:54:08;30.80;99.90
56322;DHT22;42227;6.376;-10.782;2024-02-14T08:56:37;30.80;99.90
56322;DHT22;42227;6.376;-10.782;2024-02-14T08:59:05;30.80;99.90
56322;DHT22;42227;6.376;-10.782;2024-02-14T09:01:33;30.80;99.90
56322;DHT22;42227;6.376;-10.782;2024-02-14T09:04:02;31.10;99.90
56322;DHT22;42227;6.376;-10.782;2024-02-14T09:06:30;31.60;92.20
56322;DHT22;42227;6.376;-10.782;2024-02-14T09:08:59;32.00;69.70
56322;DHT22;42227;6.376;-10.782;2024-02-14T09:11:28;32.30;47.30
56322;DHT22;42227;6.376;-10.782;2024-02-14T09:13:59;32.60;29.70
56322;DHT22;42227;6.376;-10.782;2024-02-14T09:16:28;32.80;15.60
56322;DHT22;42227;6.376;-10.782;2024-02-14T09:18:56;32.90;15.40
56322;DHT22;42227;6.376;-10.782;2024-02-14T09:21:25;33.00;8.60
56322;DHT22;42227;6.376;-10.782;2024-02-14T09:23:53;33.10;1.00
56322;DHT22;42227;6.376;-10.782;2024-02-14T09:26:22;33.10;1.00
56322;DHT22;42227;6.376;-10.782;2024-02-14T09:28:50;32.90;1.00
56322;DHT22;42227;6.376;-10.782;2024-02-14T09:31:21;32.60;8.10
56322;DHT22;42227;6.376;-10.782;2024-02-14T09:33:50;32.30;10.60
56322;DHT22;42227;6.376;-10.782;2024-02-14T09:36:18;32.20;16.10
56322;DHT22;42227;6.376;-10.782;2024-02-14T09:38:47;32.20;19.80
56322;DHT22;42227;6.376;-10.782;2024-02-14T09:41:26;32.20;21.40
56322;DHT22;42227;6.376;-10.782;2024-02-14T09:43:58;32.30;17.10
56322;DHT22;42227;6.376;-10.782;2024-02-14T09:46:26;32.50;18.30
56322;DHT22;42227;6.376;-10.782;2024-02-14T09:48:55;32.70;14.00
56322;DHT22;42227;6.376;-10.782;2024-02-14T09:51:25;32.80;15.10
56322;DHT22;42227;6.376;-10.782;2024-02-14T09:53:54;32.90;6.90
56322;DHT22;42227;6.376;-10.782;2024-02-14T09:56:23;33.00;6.80
56322;DHT22;42227;6.376;-10.782;2024-02-14T09:58:51;33.10;1.00
56322;DHT22;42227;6.376;-10.782;2024-02-14T10:01:22;33.00;1.00
56322;DHT22;42227;6.376;-10.782;2024-02-14T10:03:51;32.80;1.00
56322;DHT22;42227;6.376;-10.782;2024-02-14T10:06:20;32.60;5.60
56322;DHT22;42227;6.376;-10.782;2024-02-14T10:08:49;32.80;13.90
56322;DHT22;42227;6.376;-10.782;2024-02-14T10:11:30;32.80;1.00
56322;DHT22;42227;6.376;-10.782;2024-02-14T10:14:00;32.70;4.30
56322;DHT22;42227;6.376;-10.782;2024-02-14T10:16:29;32.60;2.60
56322;DHT22;42227;6.376;-10.782;2024-02-14T10:18:57;32.40;10.80
56322;DHT22;42227;6.376;-10.782;2024-02-14T10:21:27;32.40;5.20
56322;DHT22;42227;6.376;-10.782;2024-02-14T10:23:59;32.60;3.30
56322;DHT22;42227;6.376;-10.782;2024-02-14T10:26:30;32.90;1.00
56322;DHT22;42227;6.376;-10.782;2024-02-14T10:28:58;33.10;1.00
56322;DHT22;42227;6.376;-10.782;2024-02-14T10:31:27;33.30;1.00
56322;DHT22;42227;6.376;-10.782;2024-02-14T10:33:56;33.30;1.00
56322;DHT22;42227;6.376;-10.782;2024-02-14T10:36:25;33.30;1.00
56322;DHT22;42227;6.376;-10.782;2024-02-14T10:38:55;33.30;1.00
56322;DHT22;42227;6.376;-10.782;2024-02-14T10:41:24;33.40;1.00
56322;DHT22;42227;6.376;-10.782;2024-02-14T10:43:52;33.40;1.00
56322;DHT22;42227;6.376;-10.782;2024-02-14T10:46:23;33.40;1.00
56322;DHT22;42227;6.376;-10.782;2024-02-14T10:48:58;33.40;1.00
56322;DHT22;42227;6.376;-10.782;2024-02-14T10:51:32;33.40;1.00
56322;DHT22;42227;6.376;-10.782;2024-02-14T10:54:08;33.40;1.00
56322;DHT22;42227;6.376;-10.782;2024-02-14T10:56:41;33.70;1.00
56322;DHT22;42227;6.376;-10.782;2024-02-14T10:59:13;33.60;1.00
56322;DHT22;42227;6.376;-10.782;2024-02-14T11:01:44;33.50;1.00
56322;DHT22;42227;6.376;-10.782;2024-02-14T11:04:13;33.60;1.00
56322;DHT22;42227;6.376;-10.782;2024-02-14T11:06:51;33.60;1.00
56322;DHT22;42227;6.376;-10.782;2024-02-14T11:09:20;33.60;1.00
56322;DHT22;42227;6.376;-10.782;2024-02-14T11:11:49;33.40;1.00
56322;DHT22;42227;6.376;-10.782;2024-02-14T11:14:20;33.20;1.00
56322;DHT22;42227;6.376;-10.782;2024-02-14T11:16:52;33.10;1.00
56322;DHT22;42227;6.376;-10.782;2024-02-14T11:19:33;32.90;1.00
56322;DHT22;42227;6.376;-10.782;2024-02-14T11:22:12;33.00;1.00
56322;DHT22;42227;6.376;-10.782;2024-02-14T11:24:41;33.10;1.00
56322;DHT22;42227;6.376;-10.782;2024-02-14T11:27:10;33.00;1.00
56322;DHT22;42227;6.376;-10.782;2024-02-14T11:29:59;32.90;1.00
56322;DHT22;42227;6.376;-10.782;2024-02-14T11:32:29;32.60;1.00
56322;DHT22;42227;6.376;-10.782;2024-02-14T11:34:57;32.60;1.00
56322;DHT22;42227;6.376;-10.782;2024-02-14T11:37:29;32.60;1.00
56322;DHT22;42227;6.376;-10.782;2024-02-14T11:39:58;32.90;1.00
56322;DHT22;42227;6.376;-10.782;2024-02-14T11:42:27;33.00;1.00
56322;DHT22;42227;6.376;-10.782;2024-02-14T11:44:57;32.90;1.00
56322;DHT22;42227;6.376;-10.782;2024-02-14T11:47:26;33.10;1.00
56322;DHT22;42227;6.376;-10.782;2024-02-14T11:49:55;33.10;1.00
56322;DHT22;42227;6.376;-10.782;2024-02-14T11:52:23;33.30;1.00
56322;DHT22;42227;6.376;-10.782;2024-02-14T11:54:53;33.30;1.00
56322;DHT22;42227;6.376;-10.782;2024-02-14T11:57:22;33.30;1.00
56322;DHT22;42227;6.376;-10.782;2024-02-14T11:59:50;33.30;1.00
56322;DHT22;42227;6.376;-10.782;2024-02-14T12:02:21;33.40;1.00
56322;DHT22;42227;6.376;-10.782;2024-02-14T12:04:50;33.40;1.00
56322;DHT22;42227;6.376;-10.782;2024-02-14T12:07:19;33.30;1.00
56322;DHT22;42227;6.376;-10.782;2024-02-14T12:09:47;33.30;1.00
56322;DHT22;42227;6.376;-10.782;2024-02-14T12:12:16;33.20;1.00
56322;DHT22;42227;6.376;-10.782;2024-02-14T12:14:44;33.00;1.00
56322;DHT22;42227;6.376;-10.782;2024-02-14T12:17:13;33.00;1.00
56322;DHT22;42227;6.376;-10.782;2024-02-14T12:19:42;32.80;1.00
56322;DHT22;42227;6.376;-10.782;2024-02-14T12:22:11;32.50;1.00
56322;DHT22;42227;6.376;-10.782;2024-02-14T12:24:39;32.50;8.10
56322;DHT22;42227;6.376;-10.782;2024-02-14T12:27:08;32.80;10.50
56322;DHT22;42227;6.376;-10.782;2024-02-14T12:29:37;32.80;12.00
56322;DHT22;42227;6.376;-10.782;2024-02-14T12:32:06;32.90;4.20
56322;DHT22;42227;6.376;-10.782;2024-02-14T12:34:37;33.00;4.40
56322;DHT22;42227;6.376;-10.782;2024-02-14T12:37:06;33.10;1.00
56322;DHT22;42227;6.376;-10.782;2024-02-14T12:39:34;33.10;1.00
56322;DHT22;42227;6.376;-10.782;2024-02-14T12:42:06;33.10;1.00
56322;DHT22;42227;6.376;-10.782;2024-02-14T12:44:34;33.00;1.00
56322;DHT22;42227;6.376;-10.782;2024-02-14T12:47:03;32.90;1.00
56322;DHT22;42227;6.376;-10.782;2024-02-14T12:49:31;33.10;1.00
56322;DHT22;42227;6.376;-10.782;2024-02-14T12:52:00;33.00;1.00
56322;DHT22;42227;6.376;-10.782;2024-02-14T12:54:28;33.00;1.00
56322;DHT22;42227;6.376;-10.782;2024-02-14T12:56:56;33.20;1.00
56322;DHT22;42227;6.376;-10.782;2024-02-14T12:59:25;33.40;1.00
56322;DHT22;42227;6.376;-10.782;2024-02-14T13:01:53;33.40;1.00
56322;DHT22;42227;6.376;-10.782;2024-02-14T13:04:22;33.50;1.00
56322;DHT22;42227;6.376;-10.782;2024-02-14T13:06:50;33.30;1.00
56322;DHT22;42227;6.376;-10.782;2024-02-14T13:09:19;33.40;1.00
56322;DHT22;42227;6.376;-10.782;2024-02-14T13:11:47;33.10;1.00
56322;DHT22;42227;6.376;-10.782;2024-02-14T13:14:16;33.00;1.00
56322;DHT22;42227;6.376;-10.782;2024-02-14T13:16:44;33.00;1.00
56322;DHT22;42227;6.376;-10.782;2024-02-14T13:19:12;32.90;9.80
56322;DHT22;42227;6.376;-10.782;2024-02-14T13:21:46;33.00;14.90
56322;DHT22;42227;6.376;-10.782;2024-02-14T13:24:15;32.90;7.20
56322;DHT22;42227;6.376;-10.782;2024-02-14T13:26:44;32.80;4.20
56322;DHT22;42227;6.376;-10.782;2024-02-14T13:29:12;32.70;8.30
56322;DHT22;42227;6.376;-10.782;2024-02-14T13:31:41;32.60;14.50
56322;DHT22;42227;6.376;-10.782;2024-02-14T13:34:09;32.60;17.70
56322;DHT22;42227;6.376;-10.782;2024-02-14T13:36:38;32.50;29.20
56322;DHT22;42227;6.376;-10.782;2024-02-14T13:39:06;32.70;33.70
56322;DHT22;42227;6.376;-10.782;2024-02-14T13:41:35;32.90;21.80
56322;DHT22;42227;6.376;-10.782;2024-02-14T13:44:03;32.70;14.90
56322;DHT22;42227;6.376;-10.782;2024-02-14T13:46:32;32.50;22.30
56322;DHT22;42227;6.376;-10.782;2024-02-14T13:49:00;32.50;27.00
56322;DHT22;42227;6.376;-10.782;2024-02-14T13:51:29;32.50;24.50
56322;DHT22;42227;6.376;-10.782;2024-02-14T13:53:57;32.60;26.00
56322;DHT22;42227;6.376;-10.782;2024-02-14T13:56:25;32.60;24.80
56322;DHT22;42227;6.376;-10.782;2024-02-14T13:58:54;32.40;24.50
56322;DHT22;42227;6.376;-10.782;2024-02-14T14:01:22;32.40;25.90
56322;DHT22;42227;6.376;-10.782;2024-02-14T14:03:50;32.20;34.00
56322;DHT22;42227;6.376;-10.782;2024-02-14T14:06:19;32.20;29.70
56322;DHT22;42227;6.376;-10.782;2024-02-14T14:08:47;32.20;29.90
56322;DHT22;42227;6.376;-10.782;2024-02-14T14:11:18;32.00;23.90
56322;DHT22;42227;6.376;-10.782;2024-02-14T14:13:46;31.90;49.00
56322;DHT22;42227;6.376;-10.782;2024-02-14T14:16:15;31.80;56.10
56322;DHT22;42227;6.376;-10.782;2024-02-14T14:18:43;31.80;60.20
56322;DHT22;42227;6.376;-10.782;2024-02-14T14:21:12;31.90;63.10
56322;DHT22;42227;6.376;-10.782;2024-02-14T14:23:40;31.80;50.50
56322;DHT22;42227;6.376;-10.782;2024-02-14T14:26:09;32.00;65.20
56322;DHT22;42227;6.376;-10.782;2024-02-14T14:28:37;32.20;48.00
56322;DHT22;42227;6.376;-10.782;2024-02-14T14:31:06;32.30;40.20
56322;DHT22;42227;6.376;-10.782;2024-02-14T14:33:39;32.20;45.50
56322;DHT22;42227;6.376;-10.782;2024-02-14T14:36:08;32.40;51.50
56322;DHT22;42227;6.376;-10.782;2024-02-14T14:38:37;32.40;29.20
56322;DHT22;42227;6.376;-10.782;2024-02-14T14:41:05;32.40;48.40
56322;DHT22;42227;6.376;-10.782;2024-02-14T14:43:33;32.20;33.00
56322;DHT22;42227;6.376;-10.782;2024-02-14T14:46:02;32.00;38.30
56322;DHT22;42227;6.376;-10.782;2024-02-14T14:48:30;32.00;51.40
56322;DHT22;42227;6.376;-10.782;2024-02-14T14:50:59;32.00;63.30
56322;DHT22;42227;6.376;-10.782;2024-02-14T14:53:27;32.00;60.70
56322;DHT22;42227;6.376;-10.782;2024-02-14T14:55:57;32.10;52.00
56322;DHT22;42227;6.376;-10.782;2024-02-14T14:58:25;32.20;56.10
56322;DHT22;42227;6.376;-10.782;2024-02-14T15:00:56;32.20;41.10
56322;DHT22;42227;6.376;-10.782;2024-02-14T15:03:25;32.10;56.10
56322;DHT22;42227;6.376;-10.782;2024-02-14T15:05:54;32.00;68.40
56322;DHT22;42227;6.376;-10.782;2024-02-14T15:08:22;31.90;45.10
56322;DHT22;42227;6.376;-10.782;2024-02-14T15:10:54;31.80;45.10
56322;DHT22;42227;6.376;-10.782;2024-02-14T15:13:24;31.70;73.60
56322;DHT22;42227;6.376;-10.782;2024-02-14T15:15:52;31.60;85.40
56322;DHT22;42227;6.376;-10.782;2024-02-14T15:18:21;31.60;78.50
56322;DHT22;42227;6.376;-10.782;2024-02-14T15:20:50;31.70;75.80
56322;DHT22;42227;6.376;-10.782;2024-02-14T15:23:18;31.70;69.60
56322;DHT22;42227;6.376;-10.782;2024-02-14T15:25:46;31.80;81.60
56322;DHT22;42227;6.376;-10.782;2024-02-14T15:28:15;31.90;84.60
56322;DHT22;42227;6.376;-10.782;2024-02-14T15:30:43;31.90;90.00
56322;DHT22;42227;6.376;-10.782;2024-02-14T15:33:12;32.10;76.80
56322;DHT22;42227;6.376;-10.782;2024-02-14T15:35:42;32.00;77.50
56322;DHT22;42227;6.376;-10.782;2024-02-14T15:38:11;32.00;72.60
56322;DHT22;42227;6.376;-10.782;2024-02-14T15:40:39;31.90;72.70
56322;DHT22;42227;6.376;-10.782;2024-02-14T15:43:07;32.00;81.40
56322;DHT22;42227;6.376;-10.782;2024-02-14T15:45:38;32.20;57.50
56322;DHT22;42227;6.376;-10.782;2024-02-14T15:48:06;32.20;62.10
56322;DHT22;42227;6.376;-10.782;2024-02-14T15:50:36;32.20;61.30
56322;DHT22;42227;6.376;-10.782;2024-02-14T15:53:04;32.10;44.20
56322;DHT22;42227;6.376;-10.782;2024-02-14T15:55:33;32.20;66.10
56322;DHT22;42227;6.376;-10.782;2024-02-14T15:58:02;32.10;67.10